ADDS METAR Data

Data at: 0529 UTC 20 Sep 2017

METAR for:KLGA (New York/La Guardia, NY, US)
Text:KLGA 200451Z 02012KT 10SM OVC034 22/18 A2984 RMK AO2 SLP106 T02220183 402560206
Temperature: 22.2°C ( 72°F)
Dewpoint: 18.3°C ( 65°F) [RH = 79%]
Pressure (altimeter):29.84 inches Hg (1010.6 mb) [Sea level pressure: 1010.6 mb]
Winds:from the NNE (20 degrees) at 14 MPH (12 knots; 6.2 m/s)
Visibility:10 or more sm (16+ km)
Ceiling:3400 feet AGL
Clouds: overcast cloud deck at 3400 feet AGL